BBC Orinoco — V2DM2 — position and weather

sailwx.info

Track history (hours):
 
Tides and Currents Weather Stations Pressure Air Temp Water Temp Dewpoint Dewpoint Depression Visibility Wind Speed Wind Dir Waves Ship Positions

BBC Orinoco

Last reported at 2015-Jul-29 17:31 UTC. Time now 2015-Aug-01 03:35 UTC.
Position N 33°24' E 125°33'.

Length 143 m; draft 7.8 m.

Type: Ship. MMSI: 305255000.

Date/timePositionNaut miles runAvg speedWind from/ knotsBaromVisibWave heightAir tempDewpointWater temp
2015-Jul-29 17:31N 33°24' E 125°33'3313.3
2015-Jul-29 15:03N 33°47' E 125°05'612.4
2015-Jul-29 14:32N 33°51' E 124°59'45412.3
2015-Jul-28 01:33N 38°53' E 117°57'10 9.0
2015-Jul-28 00:30N 38°57' E 117°46'0 0.0
2015-Jul-27 23:33N 38°57' E 117°46'0 0.0
2015-Jul-27 22:32N 38°57' E 117°46'0 0.0
2015-Jul-27 21:33N 38°57' E 117°46'0 0.0
2015-Jul-27 20:32N 38°57' E 117°46'0 0.0
2015-Jul-27 19:33N 38°57' E 117°46'0 0.0
2015-Jul-27 18:33N 38°57' E 117°46'0 0.0
2015-Jul-27 17:32N 38°57' E 117°46'0 0.0
2015-Jul-27 16:32N 38°57' E 117°46'0 0.0
2015-Jul-27 15:32N 38°57' E 117°46'0 0.0
2015-Jul-27 14:31N 38°57' E 117°46'0 0.0
2015-Jul-27 13:31N 38°57' E 117°46'0 0.0
2015-Jul-27 12:30N 38°57' E 117°46'0 0.0
2015-Jul-27 11:31N 38°57' E 117°46'0 0.0
2015-Jul-27 10:33N 38°57' E 117°46'0 0.0
2015-Jul-27 09:33N 38°57' E 117°46'0 0.0
2015-Jul-27 08:31N 38°57' E 117°46'0 0.0
2015-Jul-27 07:33N 38°57' E 117°46'0 0.0
2015-Jul-27 06:33N 38°57' E 117°46'0 0.0
2015-Jul-27 05:28N 38°57' E 117°46'0 0.0
2015-Jul-27 04:33N 38°57' E 117°46'0 0.0
2015-Jul-27 03:23N 38°57' E 117°46'0 0.0
2015-Jul-27 02:26N 38°57' E 117°46'0 0.0
2015-Jul-27 01:31N 38°57' E 117°46'0 0.0
2015-Jul-27 00:33N 38°57' E 117°46'0 0.0
2015-Jul-26 23:32N 38°57' E 117°46'0 0.0
2015-Jul-26 22:32N 38°57' E 117°46'0 0.0
2015-Jul-26 21:28N 38°57' E 117°46'0 0.0
2015-Jul-26 20:28N 38°57' E 117°46'0 0.0
2015-Jul-26 19:31N 38°57' E 117°46'0 0.0
2015-Jul-26 18:32N 38°57' E 117°46'0 0.0
2015-Jul-26 17:33N 38°57' E 117°46'0 0.0
2015-Jul-26 16:31N 38°57' E 117°46'0 0.0
2015-Jul-26 15:33N 38°57' E 117°46'0 0.0
2015-Jul-26 14:30N 38°57' E 117°46'0 0.0
2015-Jul-26 13:32N 38°57' E 117°46'0 0.0
2015-Jul-26 12:29N 38°57' E 117°46'0 0.0
2015-Jul-26 11:31N 38°57' E 117°46'0 0.0
2015-Jul-26 10:33N 38°57' E 117°46'0 0.1
2015-Jul-26 09:33N 38°57' E 117°46'9 9.3
2015-Jul-26 08:33N 38°53' E 117°57'7 6.5
2015-Jul-26 07:33N 38°51' E 118°05'6111.4
2015-Jul-26 02:11N 38°46' E 119°23'812.0
2015-Jul-26 01:33N 38°45' E 119°32'16011.4
2015-Jul-25 11:31N 37°53' E 122°45'40811.8
2015-Jul-24 01:05N 31°05' E 122°23'713.9
2015-Jul-24 00:33N 31°08' E 122°15'1514.5
2015-Jul-23 23:33N 31°15' E 122°00'1414.4
2015-Jul-23 22:34N 31°19' E 121°44'1110.9
2015-Jul-23 21:34N 31°24' E 121°33'1010.0
2015-Jul-23 20:33N 31°30' E 121°24'1 0.7
2015-Jul-23 19:32N 31°30' E 121°23'0 0.0
2015-Jul-23 18:31N 31°30' E 121°23'0 0.0
2015-Jul-23 17:28N 31°30' E 121°23'0 0.0
2015-Jul-23 16:31N 31°30' E 121°23'0 0.0
2015-Jul-23 15:33N 31°30' E 121°23'0 0.0
2015-Jul-23 14:30N 31°30' E 121°23'0 0.1
2015-Jul-23 13:32N 31°30' E 121°23'0 0.0
2015-Jul-23 12:32N 31°30' E 121°23'0 0.1
2015-Jul-23 11:31N 31°30' E 121°23'0 0.0
2015-Jul-23 10:31N 31°30' E 121°23'0 0.0
2015-Jul-23 09:31N 31°30' E 121°23'0 0.0
2015-Jul-23 08:30N 31°30' E 121°23'0 0.0
2015-Jul-23 07:33N 31°30' E 121°23'0 0.0
2015-Jul-23 06:32N 31°30' E 121°23'0 0.0
2015-Jul-23 05:29N 31°30' E 121°23'0 0.0
2015-Jul-23 04:31N 31°30' E 121°23'0 0.0
2015-Jul-23 03:31N 31°30' E 121°23'0 0.0
2015-Jul-23 02:34N 31°30' E 121°23'0 0.0
2015-Jul-23 01:33N 31°30' E 121°23'0 0.0
2015-Jul-23 00:33N 31°30' E 121°23'0 0.0
2015-Jul-22 23:29N 31°30' E 121°23'0 0.0
2015-Jul-22 22:32N 31°30' E 121°23'0 0.0
2015-Jul-22 21:31N 31°30' E 121°23'0 0.0
2015-Jul-22 20:31N 31°30' E 121°23'0 0.0
2015-Jul-22 19:33N 31°30' E 121°23'0 0.0
2015-Jul-22 18:33N 31°30' E 121°23'0 0.0
2015-Jul-22 17:33N 31°30' E 121°23'0 0.0
2015-Jul-22 16:32N 31°30' E 121°23'0 0.0
2015-Jul-22 15:32N 31°30' E 121°23'0 0.0
2015-Jul-22 14:25N 31°30' E 121°23'0 0.0
2015-Jul-22 13:31N 31°30' E 121°23'0 0.0
2015-Jul-22 12:33N 31°30' E 121°23'0 0.0
2015-Jul-22 11:33N 31°30' E 121°23'0 0.0
2015-Jul-22 10:33N 31°30' E 121°23'0 0.0
2015-Jul-22 09:32N 31°30' E 121°23'0 0.0
2015-Jul-22 08:32N 31°30' E 121°23'0 0.0
2015-Jul-22 07:28N 31°30' E 121°23'0 0.0
2015-Jul-22 06:28N 31°30' E 121°23'0 0.0
2015-Jul-22 05:33N 31°30' E 121°23'0 0.0
2015-Jul-22 04:33N 31°30' E 121°23'0 0.0
2015-Jul-22 03:33N 31°30' E 121°23'0 0.0
2015-Jul-22 02:32N 31°30' E 121°23'0 0.0
2015-Jul-22 01:29N 31°30' E 121°23'0 0.0
2015-Jul-22 00:31N 31°30' E 121°23'0 0.0
2015-Jul-21 23:31N 31°30' E 121°23'0 0.0
2015-Jul-21 22:31N 31°30' E 121°23'0 0.0
2015-Jul-21 21:31N 31°30' E 121°23'0 0.0
2015-Jul-21 20:27N 31°30' E 121°23'0 0.0
2015-Jul-21 19:33N 31°30' E 121°23'0 0.0
2015-Jul-21 18:33N 31°30' E 121°23'0 0.0
2015-Jul-21 17:32N 31°30' E 121°23'0 0.0
2015-Jul-21 16:32N 31°30' E 121°23'0 0.0
2015-Jul-21 15:31N 31°30' E 121°23'0 0.0
2015-Jul-21 14:31N 31°30' E 121°23'0 0.0
2015-Jul-21 13:28N 31°30' E 121°23'0 0.0
2015-Jul-21 12:33N 31°30' E 121°23'0 0.0
2015-Jul-21 11:33N 31°30' E 121°23'0 0.0
2015-Jul-21 10:29N 31°30' E 121°23'0 0.0
2015-Jul-21 09:29N 31°30' E 121°23'0 0.0
2015-Jul-21 08:31N 31°30' E 121°23'0 0.0
2015-Jul-21 07:31N 31°30' E 121°23'0 0.0
2015-Jul-21 06:31N 31°30' E 121°23'0 0.0
2015-Jul-21 05:33N 31°30' E 121°23'0 0.0
2015-Jul-21 04:33N 31°30' E 121°23'0 0.0
2015-Jul-21 03:33N 31°30' E 121°23'0 0.0
2015-Jul-21 02:32N 31°30' E 121°23'0 0.0
2015-Jul-21 01:32N 31°30' E 121°23'0 0.0
2015-Jul-21 00:28N 31°30' E 121°23'0 0.0
2015-Jul-20 23:31N 31°30' E 121°23'0 0.0
2015-Jul-20 22:33N 31°30' E 121°23'0 0.0
2015-Jul-20 21:27N 31°30' E 121°23'0 0.0
2015-Jul-20 20:32N 31°30' E 121°23'0 0.0
2015-Jul-20 19:32N 31°30' E 121°23'0 0.0
2015-Jul-20 18:32N 31°30' E 121°23'0 0.0
2015-Jul-20 17:31N 31°30' E 121°23'0 0.0
2015-Jul-20 16:31N 31°30' E 121°23'0 0.0
2015-Jul-20 15:30N 31°30' E 121°23'0 0.0
2015-Jul-20 14:33N 31°30' E 121°23'0 0.0
2015-Jul-20 13:32N 31°30' E 121°23'0 0.0
2015-Jul-20 12:32N 31°30' E 121°23'0 0.0
2015-Jul-20 11:29N 31°30' E 121°23'0 0.0
2015-Jul-20 10:31N 31°30' E 121°23'0 0.0
2015-Jul-20 09:31N 31°30' E 121°23'1 0.9
2015-Jul-20 08:33N 31°31' E 121°22'1 0.9
2015-Jul-20 07:32N 31°31' E 121°22'0 0.0
2015-Jul-20 06:32N 31°31' E 121°22'5 5.5
2015-Jul-20 05:33N 31°29' E 121°27'1111.4
2015-Jul-20 04:33N 31°22' E 121°38'1313.2
2015-Jul-20 03:33N 31°13' E 121°49'1313.3
2015-Jul-20 02:33N 31°05' E 122°02'1313.2
2015-Jul-20 01:33N 31°03' E 122°17'  
Track history (hours):
 
Tides and Currents Weather Stations Pressure Air Temp Water Temp Dewpoint Dewpoint Depression Visibility Wind Speed Wind Dir Waves Ship Positions

BBC Orinoco

Last reported at 2015-Jul-29 17:31 UTC. Time now 2015-Aug-01 03:35 UTC.
Position N 33°24' E 125°33'.

Length 143 m; draft 7.8 m.

Type: Ship. MMSI: 305255000.

Date/timePositionNaut miles runAvg speedWind from/ knotsBaromVisibWave heightAir tempDewpointWater temp
2015-Jul-29 17:31N 33°24' E 125°33'3313.3
2015-Jul-29 15:03N 33°47' E 125°05'612.4
2015-Jul-29 14:32N 33°51' E 124°59'45412.3
2015-Jul-28 01:33N 38°53' E 117°57'10 9.0
2015-Jul-28 00:30N 38°57' E 117°46'0 0.0
2015-Jul-27 23:33N 38°57' E 117°46'0 0.0
2015-Jul-27 22:32N 38°57' E 117°46'0 0.0
2015-Jul-27 21:33N 38°57' E 117°46'0 0.0
2015-Jul-27 20:32N 38°57' E 117°46'0 0.0
2015-Jul-27 19:33N 38°57' E 117°46'0 0.0
2015-Jul-27 18:33N 38°57' E 117°46'0 0.0
2015-Jul-27 17:32N 38°57' E 117°46'0 0.0
2015-Jul-27 16:32N 38°57' E 117°46'0 0.0
2015-Jul-27 15:32N 38°57' E 117°46'0 0.0
2015-Jul-27 14:31N 38°57' E 117°46'0 0.0
2015-Jul-27 13:31N 38°57' E 117°46'0 0.0
2015-Jul-27 12:30N 38°57' E 117°46'0 0.0
2015-Jul-27 11:31N 38°57' E 117°46'0 0.0
2015-Jul-27 10:33N 38°57' E 117°46'0 0.0
2015-Jul-27 09:33N 38°57' E 117°46'0 0.0
2015-Jul-27 08:31N 38°57' E 117°46'0 0.0
2015-Jul-27 07:33N 38°57' E 117°46'0 0.0
2015-Jul-27 06:33N 38°57' E 117°46'0 0.0
2015-Jul-27 05:28N 38°57' E 117°46'0 0.0
2015-Jul-27 04:33N 38°57' E 117°46'0 0.0
2015-Jul-27 03:23N 38°57' E 117°46'0 0.0
2015-Jul-27 02:26N 38°57' E 117°46'0 0.0
2015-Jul-27 01:31N 38°57' E 117°46'0 0.0
2015-Jul-27 00:33N 38°57' E 117°46'0 0.0
2015-Jul-26 23:32N 38°57' E 117°46'0 0.0
2015-Jul-26 22:32N 38°57' E 117°46'0 0.0
2015-Jul-26 21:28N 38°57' E 117°46'0 0.0
2015-Jul-26 20:28N 38°57' E 117°46'0 0.0
2015-Jul-26 19:31N 38°57' E 117°46'0 0.0
2015-Jul-26 18:32N 38°57' E 117°46'0 0.0
2015-Jul-26 17:33N 38°57' E 117°46'0 0.0
2015-Jul-26 16:31N 38°57' E 117°46'0 0.0
2015-Jul-26 15:33N 38°57' E 117°46'0 0.0
2015-Jul-26 14:30N 38°57' E 117°46'0 0.0
2015-Jul-26 13:32N 38°57' E 117°46'0 0.0
2015-Jul-26 12:29N 38°57' E 117°46'0 0.0
2015-Jul-26 11:31N 38°57' E 117°46'0 0.0
2015-Jul-26 10:33N 38°57' E 117°46'0 0.1
2015-Jul-26 09:33N 38°57' E 117°46'9 9.3
2015-Jul-26 08:33N 38°53' E 117°57'7 6.5
2015-Jul-26 07:33N 38°51' E 118°05'6111.4
2015-Jul-26 02:11N 38°46' E 119°23'812.0
2015-Jul-26 01:33N 38°45' E 119°32'16011.4
2015-Jul-25 11:31N 37°53' E 122°45'40811.8
2015-Jul-24 01:05N 31°05' E 122°23'713.9
2015-Jul-24 00:33N 31°08' E 122°15'1514.5
2015-Jul-23 23:33N 31°15' E 122°00'1414.4
2015-Jul-23 22:34N 31°19' E 121°44'1110.9
2015-Jul-23 21:34N 31°24' E 121°33'1010.0
2015-Jul-23 20:33N 31°30' E 121°24'1 0.7
2015-Jul-23 19:32N 31°30' E 121°23'0 0.0
2015-Jul-23 18:31N 31°30' E 121°23'0 0.0
2015-Jul-23 17:28N 31°30' E 121°23'0 0.0
2015-Jul-23 16:31N 31°30' E 121°23'0 0.0
2015-Jul-23 15:33N 31°30' E 121°23'0 0.0
2015-Jul-23 14:30N 31°30' E 121°23'0 0.1
2015-Jul-23 13:32N 31°30' E 121°23'0 0.0
2015-Jul-23 12:32N 31°30' E 121°23'0 0.1
2015-Jul-23 11:31N 31°30' E 121°23'0 0.0
2015-Jul-23 10:31N 31°30' E 121°23'0 0.0
2015-Jul-23 09:31N 31°30' E 121°23'0 0.0
2015-Jul-23 08:30N 31°30' E 121°23'0 0.0
2015-Jul-23 07:33N 31°30' E 121°23'0 0.0
2015-Jul-23 06:32N 31°30' E 121°23'0 0.0
2015-Jul-23 05:29N 31°30' E 121°23'0 0.0
2015-Jul-23 04:31N 31°30' E 121°23'0 0.0
2015-Jul-23 03:31N 31°30' E 121°23'0 0.0
2015-Jul-23 02:34N 31°30' E 121°23'0 0.0
2015-Jul-23 01:33N 31°30' E 121°23'0 0.0
2015-Jul-23 00:33N 31°30' E 121°23'0 0.0
2015-Jul-22 23:29N 31°30' E 121°23'0 0.0
2015-Jul-22 22:32N 31°30' E 121°23'0 0.0
2015-Jul-22 21:31N 31°30' E 121°23'0 0.0
2015-Jul-22 20:31N 31°30' E 121°23'0 0.0
2015-Jul-22 19:33N 31°30' E 121°23'0 0.0
2015-Jul-22 18:33N 31°30' E 121°23'0 0.0
2015-Jul-22 17:33N 31°30' E 121°23'0 0.0
2015-Jul-22 16:32N 31°30' E 121°23'0 0.0
2015-Jul-22 15:32N 31°30' E 121°23'0 0.0
2015-Jul-22 14:25N 31°30' E 121°23'0 0.0
2015-Jul-22 13:31N 31°30' E 121°23'0 0.0
2015-Jul-22 12:33N 31°30' E 121°23'0 0.0
2015-Jul-22 11:33N 31°30' E 121°23'0 0.0
2015-Jul-22 10:33N 31°30' E 121°23'0 0.0
2015-Jul-22 09:32N 31°30' E 121°23'0 0.0
2015-Jul-22 08:32N 31°30' E 121°23'0 0.0
2015-Jul-22 07:28N 31°30' E 121°23'0 0.0
2015-Jul-22 06:28N 31°30' E 121°23'0 0.0
2015-Jul-22 05:33N 31°30' E 121°23'0 0.0
2015-Jul-22 04:33N 31°30' E 121°23'0 0.0
2015-Jul-22 03:33N 31°30' E 121°23'0 0.0
2015-Jul-22 02:32N 31°30' E 121°23'0 0.0
2015-Jul-22 01:29N 31°30' E 121°23'0 0.0
2015-Jul-22 00:31N 31°30' E 121°23'0 0.0
2015-Jul-21 23:31N 31°30' E 121°23'0 0.0
2015-Jul-21 22:31N 31°30' E 121°23'0 0.0
2015-Jul-21 21:31N 31°30' E 121°23'0 0.0
2015-Jul-21 20:27N 31°30' E 121°23'0 0.0
2015-Jul-21 19:33N 31°30' E 121°23'0 0.0
2015-Jul-21 18:33N 31°30' E 121°23'0 0.0
2015-Jul-21 17:32N 31°30' E 121°23'0 0.0
2015-Jul-21 16:32N 31°30' E 121°23'0 0.0
2015-Jul-21 15:31N 31°30' E 121°23'0 0.0
2015-Jul-21 14:31N 31°30' E 121°23'0 0.0
2015-Jul-21 13:28N 31°30' E 121°23'0 0.0
2015-Jul-21 12:33N 31°30' E 121°23'0 0.0
2015-Jul-21 11:33N 31°30' E 121°23'0 0.0
2015-Jul-21 10:29N 31°30' E 121°23'0 0.0
2015-Jul-21 09:29N 31°30' E 121°23'0 0.0
2015-Jul-21 08:31N 31°30' E 121°23'0 0.0
2015-Jul-21 07:31N 31°30' E 121°23'0 0.0
2015-Jul-21 06:31N 31°30' E 121°23'0 0.0
2015-Jul-21 05:33N 31°30' E 121°23'0 0.0
2015-Jul-21 04:33N 31°30' E 121°23'0 0.0
2015-Jul-21 03:33N 31°30' E 121°23'0 0.0
2015-Jul-21 02:32N 31°30' E 121°23'0 0.0
2015-Jul-21 01:32N 31°30' E 121°23'0 0.0
2015-Jul-21 00:28N 31°30' E 121°23'0 0.0
2015-Jul-20 23:31N 31°30' E 121°23'0 0.0
2015-Jul-20 22:33N 31°30' E 121°23'0 0.0
2015-Jul-20 21:27N 31°30' E 121°23'0 0.0
2015-Jul-20 20:32N 31°30' E 121°23'0 0.0
2015-Jul-20 19:32N 31°30' E 121°23'0 0.0
2015-Jul-20 18:32N 31°30' E 121°23'0 0.0
2015-Jul-20 17:31N 31°30' E 121°23'0 0.0
2015-Jul-20 16:31N 31°30' E 121°23'0 0.0
2015-Jul-20 15:30N 31°30' E 121°23'0 0.0
2015-Jul-20 14:33N 31°30' E 121°23'0 0.0
2015-Jul-20 13:32N 31°30' E 121°23'0 0.0
2015-Jul-20 12:32N 31°30' E 121°23'0 0.0
2015-Jul-20 11:29N 31°30' E 121°23'0 0.0
2015-Jul-20 10:31N 31°30' E 121°23'0 0.0
2015-Jul-20 09:31N 31°30' E 121°23'1 0.9
2015-Jul-20 08:33N 31°31' E 121°22'1 0.9
2015-Jul-20 07:32N 31°31' E 121°22'0 0.0
2015-Jul-20 06:32N 31°31' E 121°22'5 5.5
2015-Jul-20 05:33N 31°29' E 121°27'1111.4
2015-Jul-20 04:33N 31°22' E 121°38'1313.2
2015-Jul-20 03:33N 31°13' E 121°49'1313.3
2015-Jul-20 02:33N 31°05' E 122°02'1313.2
2015-Jul-20 01:33N 31°03' E 122°17'  

Dump ship's entire track history